Flight Track Log - Related Links

Times and Time Zones

All times are in EDT time to prevent confusion due to time zone crossing. See the USC105 flight status page for this flight to view local times or setup timezone preferences in your user account.

Time Position Orientation Groundspeed Altitude Reporting Facility
EDT Latitude Longitude Course Direction KTS MPH feet Rate Location/Type
Thu 05:07:25 AM 41.8667 -88.2667 180° South 111 128 2,000  Level Chicago TRACON
Thu 05:08:25 AM 41.8333 -88.2667 180° South 119 137 3,200 1,056 Climbing Chicago TRACON
Thu 05:09:13 AM 41.8247 -88.2500 125° Southeast 133 153 3,900 1,056 Climbing Chicago Center
Thu 05:10:13 AM 41.8147 -88.1947 104° East 147 169 5,100 1,050 Climbing Chicago Center
Thu 05:11:13 AM 41.8161 -88.1369 88° East 157 181 6,000 446 Climbing Chicago Center
Thu 05:12:14 AM 41.8194 -88.0669 86° East 182 209 6,000  Level Chicago Center
Thu 05:13:14 AM 41.8236 -87.9911 86° East 197 227 6,000  Level Chicago Center
Thu 05:14:15 AM 41.8286 -87.9122 85° East 208 239 6,000  Level Chicago Center
Thu 05:15:15 AM 41.8364 -87.8175 84° East 213 245 6,000  Level Chicago Center
Thu 05:16:15 AM 41.8461 -87.7406 80° East 212 244 6,000 99 Level Chicago Center
Thu 05:17:16 AM 41.8533 -87.6633 83° East 210 242 6,200 496 Climbing Chicago Center
Thu 05:18:16 AM 41.8622 -87.5942 80° East 195 224 7,000 397 Climbing Chicago Center
Thu 05:19:17 AM 41.8689 -87.5225 83° East 194 223 7,000  Level Chicago Center
Thu 05:20:17 AM 41.8772 -87.4453 82° East 207 238 7,000  Level Chicago Center
Thu 05:21:17 AM 41.8858 -87.3675 82° East 210 242 7,000 -50 Level Chicago Center
Thu 05:22:18 AM 41.8950 -87.2906 81° East 210 242 6,900 -50 Descending Chicago Center
Thu 05:23:18 AM 41.9022 -87.2133 83° East 209 241 6,900  Level Chicago Center
Thu 05:24:19 AM 41.9111 -87.1367 81° East 210 242 6,900  Level Chicago Center
Thu 05:25:19 AM 41.9189 -87.0600 82° East 209 241 6,900 99 Level Chicago Center
Thu 05:26:20 AM 41.9278 -86.9839 81° East 208 239 7,100 99 Climbing Chicago Center
Thu 05:27:20 AM 41.9353 -86.9064 83° East 211 243 7,100 -50 Level Chicago Center
Thu 05:28:20 AM 41.9439 -86.8314 81° East 207 238 7,000  Descending Chicago Center
Thu 05:29:21 AM 41.9517 -86.7556 82° East 207 238 7,100 50 Climbing Chicago Center
Thu 05:30:21 AM 41.9589 -86.6811 83° East 206 237 7,100  Level Chicago Center
Thu 05:31:22 AM 41.9669 -86.6025 82° East 210 242 7,100  Level Chicago Center
Thu 05:32:22 AM 41.9758 -86.5264 81° East 208 239 7,100  Level Chicago Center
Thu 05:33:23 AM 41.9828 -86.4492 83° East 209 241 7,100  Level Chicago Center
Thu 05:34:23 AM 41.9911 -86.3706 82° East 210 242 7,100  Level Chicago Center
Thu 05:35:23 AM 41.9989 -86.2922 82° East 211 243 7,100  Level Chicago Center
Thu 05:36:24 AM 42.0067 -86.2156 82° East 209 241 7,100  Level Chicago Center
Thu 05:37:24 AM 42.0139 -86.1400 83° East 205 236 7,100  Level Chicago Center
Thu 05:38:25 AM 42.0217 -86.0611 82° East 210 242 7,100 -50 Level Chicago Center
Thu 05:39:25 AM 42.0272 -85.9844 84° East 209 241 7,000  Descending Chicago Center
Thu 05:40:26 AM 42.0356 -85.9083 82° East 207 238 7,100 50 Climbing Chicago Center
Thu 05:41:26 AM 42.0450 -85.8150 82° East 209 241 7,100  Level Chicago Center
Thu 05:42:26 AM 42.0522 -85.7369 83° East 210 242 7,100  Level Chicago Center
Thu 05:43:27 AM 42.0600 -85.6592 82° East 210 242 7,100  Level Chicago Center
Thu 05:44:27 AM 42.0669 -85.5806 83° East 211 243 7,100  Level Chicago Center
Thu 05:45:28 AM 42.0739 -85.5025 83° East 210 242 7,100  Level Chicago Center
Thu 05:46:28 AM 42.0822 -85.4228 82° East 213 245 7,100  Level Chicago Center
Thu 05:47:28 AM 42.0894 -85.3453 83° East 210 242 7,100  Level Chicago Center
Thu 05:48:29 AM 42.0964 -85.2658 83° East 213 245 7,100  Level Chicago Center
Thu 05:49:29 AM 42.1031 -85.1864 84° East 213 245 7,100  Level Chicago Center
Thu 05:50:30 AM 42.1117 -85.1056 82° East 216 249 7,100  Level Chicago Center
Thu 05:51:30 AM 42.1178 -85.0267 84° East 214 246 7,100  Level Chicago Center
Thu 05:52:30 AM 42.1247 -84.9492 83° East 210 242 7,100  Level Chicago Center
Thu 05:53:31 AM 42.1317 -84.8689 83° East 213 245 7,100  Level Chicago Center
Thu 05:54:31 AM 42.1386 -84.7900 83° East 212 244 7,100  Level Chicago Center
Thu 05:55:31 AM 42.1453 -84.7119 83° East 210 242 7,100  Level Chicago Center
Thu 05:56:32 AM 42.1500 -84.6322 85° East 213 245 7,100  Level Chicago Center
Thu 05:57:32 AM 42.1583 -84.5544 82° East 211 243 7,100  Level Chicago Center
Thu 05:58:33 AM 42.1642 -84.4719 85° East 211 243 7,100  Level Chicago Center
Thu 05:59:33 AM 42.1708 -84.3933 83° East 211 243 7,100  Level Chicago Center
Thu 06:00:33 AM 42.1778 -84.3172 83° East 207 238 7,100 -149 Level Chicago Center
Thu 06:01:34 AM 42.1842 -84.2361 84° East 215 247 6,800 -595 Descending Chicago Center
Thu 06:02:34 AM 42.1911 -84.1531 84° East 221 254 5,900 -1,091 Descending Chicago Center
Thu 06:03:35 AM 42.1992 -84.0717 82° East 224 258 4,600 -1,190 Descending Chicago Center
Thu 06:04:35 AM 42.2067 -83.9869 83° East 226 260 3,500 -1,100 Descending Chicago Center

Login

Don't have an account? Register now (free) for customized features, flight alerts, and more!